createdAt,value
2022-08-30T00:01:29.629Z,24.18
2022-08-30T00:03:58.718Z,24.19
2022-08-30T00:06:27.004Z,24.19
2022-08-30T00:08:55.077Z,24.17
2022-08-30T00:11:23.971Z,24.19
2022-08-30T00:13:52.449Z,24.27
2022-08-30T00:16:20.717Z,24.21
2022-08-30T00:18:52.245Z,24.05
2022-08-30T00:21:19.925Z,24.23
2022-08-30T00:23:55.300Z,24.60
2022-08-30T00:26:23.626Z,24.60
2022-08-30T00:28:51.126Z,24.01
2022-08-30T00:31:18.443Z,23.79
2022-08-30T00:33:46.037Z,23.99
2022-08-30T00:36:13.413Z,24.02
2022-08-30T00:38:40.818Z,24.10
2022-08-30T00:41:08.490Z,24.07
2022-08-30T00:43:36.702Z,24.04
2022-08-30T00:46:07.795Z,23.91
2022-08-30T00:48:37.000Z,23.75
2022-08-30T00:51:06.500Z,23.79
2022-08-30T00:53:38.241Z,24.02
2022-08-30T00:56:06.541Z,23.80
2022-08-30T00:58:35.129Z,24.03
2022-08-30T01:01:03.366Z,23.87
2022-08-30T01:03:31.088Z,23.81
2022-08-30T01:05:58.948Z,23.95
2022-08-30T01:08:26.600Z,24.01
2022-08-30T01:10:54.583Z,23.99
2022-08-30T01:13:23.046Z,23.96
2022-08-30T01:15:50.732Z,23.61
2022-08-30T01:18:22.161Z,23.37
2022-08-30T01:20:51.462Z,23.41
2022-08-30T01:23:19.462Z,23.56
2022-08-30T01:25:49.171Z,23.64
2022-08-30T01:28:26.944Z,23.72
2022-08-30T01:30:54.658Z,23.80
2022-08-30T01:33:22.681Z,23.91
2022-08-30T01:36:12.417Z,23.98
2022-08-30T01:38:40.800Z,23.92
2022-08-30T01:41:14.647Z,24.13
2022-08-30T01:43:42.724Z,23.95
2022-08-30T01:46:12.029Z,23.88
2022-08-30T01:48:40.735Z,23.86
2022-08-30T01:51:10.487Z,23.86
2022-08-30T01:53:38.749Z,23.91
2022-08-30T01:56:08.410Z,23.84
2022-08-30T01:58:36.523Z,23.72
2022-08-30T02:01:05.568Z,23.53
2022-08-30T02:03:35.376Z,23.56
2022-08-30T02:06:04.265Z,23.53
2022-08-30T02:08:32.788Z,23.52
2022-08-30T02:11:02.556Z,23.51
2022-08-30T02:13:30.672Z,23.58
2022-08-30T02:15:58.023Z,23.68
2022-08-30T02:18:26.033Z,23.63
2022-08-30T02:20:53.731Z,23.58
2022-08-30T02:23:20.941Z,23.61
2022-08-30T02:25:48.733Z,23.56
2022-08-30T02:28:22.746Z,23.35
2022-08-30T02:30:52.821Z,23.43
2022-08-30T02:33:20.929Z,23.30
2022-08-30T02:35:48.175Z,23.26
2022-08-30T02:38:15.896Z,23.21
2022-08-30T02:40:47.555Z,23.30
2022-08-30T02:43:15.028Z,23.30
2022-08-30T02:45:43.642Z,23.10
2022-08-30T02:48:11.096Z,23.17
2022-08-30T02:50:42.453Z,23.11
2022-08-30T02:53:12.724Z,23.17
2022-08-30T02:55:44.649Z,23.17
2022-08-30T02:58:12.734Z,23.07
2022-08-30T03:00:41.819Z,23.04
2022-08-30T03:03:09.145Z,22.94
2022-08-30T03:05:39.816Z,22.87
2022-08-30T03:08:08.562Z,22.68
2022-08-30T03:10:36.782Z,22.75
2022-08-30T03:13:07.770Z,22.83
2022-08-30T03:15:35.650Z,22.90
2022-08-30T03:18:03.714Z,22.70
2022-08-30T03:20:37.449Z,22.87
2022-08-30T03:23:06.530Z,22.73
2022-08-30T03:25:36.430Z,22.91
2022-08-30T03:28:05.460Z,22.80
2022-08-30T03:30:35.384Z,22.67
2022-08-30T03:33:04.753Z,22.78
2022-08-30T03:35:35.584Z,22.67
2022-08-30T03:38:03.057Z,22.63
2022-08-30T03:40:34.480Z,22.54
2022-08-30T03:43:03.670Z,22.52
2022-08-30T03:45:32.334Z,22.49
2022-08-30T03:48:00.318Z,22.49
2022-08-30T03:50:29.038Z,22.45
2022-08-30T03:52:56.954Z,22.47
2022-08-30T03:55:24.302Z,22.52
2022-08-30T03:57:52.083Z,22.50
2022-08-30T04:00:19.653Z,22.38
2022-08-30T04:02:47.678Z,22.43
2022-08-30T04:05:18.704Z,22.12
2022-08-30T04:07:48.633Z,22.22
2022-08-30T04:10:17.208Z,22.29
2022-08-30T04:12:49.361Z,22.23
2022-08-30T04:15:18.957Z,22.13
2022-08-30T04:17:49.130Z,22.41
2022-08-30T04:20:27.514Z,22.14
2022-08-30T04:22:59.892Z,22.16
2022-08-30T04:25:27.981Z,22.29
2022-08-30T04:27:56.635Z,22.14
2022-08-30T04:30:23.955Z,22.34
2022-08-30T04:32:54.502Z,22.32
2022-08-30T04:35:26.151Z,22.05
2022-08-30T04:37:54.306Z,22.23
2022-08-30T04:40:21.897Z,22.14
2022-08-30T04:42:54.104Z,22.18
2022-08-30T04:45:22.271Z,22.26
2022-08-30T04:47:50.594Z,21.98
2022-08-30T04:50:19.751Z,22.08
2022-08-30T04:52:48.562Z,22.07
2022-08-30T04:55:20.172Z,22.30
2022-08-30T04:57:50.224Z,22.42
2022-08-30T05:00:30.556Z,22.62
2022-08-30T05:02:59.962Z,22.93
2022-08-30T05:05:42.104Z,23.03
2022-08-30T05:08:16.745Z,23.16
2022-08-30T05:10:48.698Z,23.08
2022-08-30T05:13:17.313Z,23.23
2022-08-30T05:15:45.677Z,23.21
2022-08-30T05:18:24.621Z,23.24
2022-08-30T05:21:04.723Z,23.23
2022-08-30T05:23:32.351Z,23.20
2022-08-30T05:26:04.666Z,23.10
2022-08-30T05:28:32.510Z,23.14
2022-08-30T05:33:38.725Z,22.79
2022-08-30T05:36:09.927Z,22.98
2022-08-30T05:38:37.738Z,23.12
2022-08-30T05:41:10.976Z,23.18
2022-08-30T05:43:39.134Z,23.27
2022-08-30T05:46:07.659Z,23.47
2022-08-30T05:48:36.020Z,23.45
2022-08-30T05:51:06.916Z,23.72
2022-08-30T05:53:36.402Z,23.84
2022-08-30T05:59:57.539Z,23.47
2022-08-30T06:02:33.636Z,23.60
2022-08-30T06:05:04.595Z,23.63
2022-08-30T06:07:35.500Z,23.97
2022-08-30T06:10:03.996Z,24.09
2022-08-30T06:12:32.575Z,24.24
2022-08-30T06:15:00.820Z,24.10
2022-08-30T06:17:28.819Z,24.23
2022-08-30T06:20:02.860Z,24.65
2022-08-30T06:22:39.582Z,24.68
2022-08-30T06:25:16.619Z,24.49
2022-08-30T06:27:56.574Z,25.04
2022-08-30T06:30:24.418Z,24.85
2022-08-30T06:32:52.329Z,24.75
2022-08-30T06:35:25.678Z,25.10
2022-08-30T06:37:57.864Z,25.19
2022-08-30T06:40:26.082Z,25.05
2022-08-30T06:42:56.565Z,25.08
2022-08-30T06:45:24.443Z,24.98
2022-08-30T06:47:59.894Z,25.39
2022-08-30T06:50:27.947Z,25.71
2022-08-30T06:53:15.542Z,25.34
2022-08-30T06:55:44.639Z,25.41
2022-08-30T06:58:12.471Z,25.34
2022-08-30T07:00:41.981Z,25.24
2022-08-30T07:03:10.786Z,25.65
2022-08-30T07:05:47.491Z,25.94
2022-08-30T07:08:22.619Z,25.47
2022-08-30T07:10:54.843Z,26.16
2022-08-30T07:13:24.237Z,26.16
2022-08-30T07:15:52.760Z,26.34
2022-08-30T07:18:40.875Z,26.26
2022-08-30T07:21:16.778Z,26.68
2022-08-30T07:23:53.201Z,26.39
2022-08-30T07:26:24.654Z,26.68
2022-08-30T07:28:55.857Z,26.86
2022-08-30T07:31:25.801Z,26.55
2022-08-30T07:33:54.987Z,26.85
2022-08-30T07:36:26.784Z,26.84
2022-08-30T07:38:56.619Z,26.62
2022-08-30T07:41:26.815Z,26.72
2022-08-30T07:43:56.068Z,26.84
2022-08-30T07:46:26.468Z,27.03
2022-08-30T07:53:02.143Z,27.05
2022-08-30T07:55:29.807Z,27.01
2022-08-30T07:57:57.199Z,27.28
2022-08-30T08:00:24.500Z,27.39
2022-08-30T08:02:52.278Z,27.77
2022-08-30T08:05:23.122Z,28.12
2022-08-30T08:07:52.449Z,28.20
2022-08-30T08:10:19.791Z,27.92
2022-08-30T08:12:47.306Z,27.85
2022-08-30T08:15:14.879Z,28.19
2022-08-30T08:17:42.214Z,27.97
2022-08-30T08:20:09.816Z,28.11
2022-08-30T08:22:40.230Z,28.03
2022-08-30T08:25:07.850Z,27.76
2022-08-30T08:27:35.166Z,27.88
2022-08-30T08:30:02.983Z,28.13
2022-08-30T08:32:30.264Z,28.35
2022-08-30T08:34:57.520Z,28.13
2022-08-30T08:37:27.843Z,28.04
2022-08-30T08:39:55.814Z,28.16
2022-08-30T08:42:35.752Z,28.17
2022-08-30T08:45:12.017Z,28.22
2022-08-30T08:47:40.812Z,28.30
2022-08-30T08:50:11.801Z,28.62
2022-08-30T08:53:06.183Z,28.40
2022-08-30T08:55:33.764Z,28.63
2022-08-30T08:58:01.418Z,28.36
2022-08-30T09:00:30.107Z,28.34
2022-08-30T09:02:59.494Z,28.43
2022-08-30T09:05:28.059Z,28.67
2022-08-30T09:08:01.276Z,28.52
2022-08-30T09:10:49.372Z,29.18
2022-08-30T09:13:18.824Z,29.45
2022-08-30T09:15:49.956Z,29.64
2022-08-30T09:18:28.709Z,29.41
2022-08-30T09:20:57.521Z,29.59
2022-08-30T09:23:35.408Z,29.70
2022-08-30T09:26:15.775Z,29.98
2022-08-30T09:28:51.322Z,30.04
2022-08-30T09:31:19.186Z,30.33
2022-08-30T09:34:03.874Z,30.07
2022-08-30T09:36:45.256Z,29.32
2022-08-30T09:39:29.350Z,29.76
2022-08-30T09:42:13.067Z,30.15
2022-08-30T09:44:40.582Z,30.67
2022-08-30T09:55:02.774Z,29.56
2022-08-30T09:57:37.107Z,29.42
2022-08-30T10:00:09.122Z,29.63
2022-08-30T10:02:41.146Z,30.08
2022-08-30T10:05:16.646Z,30.02
2022-08-30T10:07:44.795Z,29.66
2022-08-30T10:10:16.442Z,29.72
2022-08-30T10:12:49.953Z,29.74
2022-08-30T10:15:17.736Z,29.73
2022-08-30T10:18:07.977Z,29.88
2022-08-30T10:20:35.589Z,29.94
2022-08-30T10:23:10.854Z,30.04
2022-08-30T10:25:40.309Z,30.03
2022-08-30T10:28:12.970Z,30.14
2022-08-30T10:30:42.803Z,30.12
2022-08-30T10:33:13.613Z,30.18
2022-08-30T10:35:48.940Z,30.35
2022-08-30T10:38:16.588Z,30.84
2022-08-30T10:41:03.626Z,30.52
2022-08-30T10:43:41.174Z,30.58
2022-08-30T10:46:27.502Z,30.69
2022-08-30T10:48:57.647Z,30.34
2022-08-30T10:51:28.223Z,30.79
2022-08-30T10:54:10.814Z,31.02
2022-08-30T10:56:39.369Z,31.46
2022-08-30T10:59:11.926Z,31.92
2022-08-30T11:01:46.479Z,32.00
2022-08-30T11:04:20.076Z,32.32
2022-08-30T11:07:09.991Z,32.63
2022-08-30T11:09:40.606Z,32.92
2022-08-30T11:12:27.845Z,32.69
2022-08-30T11:15:01.858Z,32.92
2022-08-30T11:17:30.950Z,32.66
2022-08-30T11:19:59.173Z,33.21
2022-08-30T11:22:32.457Z,33.19
2022-08-30T11:25:12.742Z,32.67
2022-08-30T11:27:47.650Z,32.11
2022-08-30T11:33:13.094Z,31.82
2022-08-30T11:35:52.766Z,31.70
2022-08-30T11:38:26.590Z,31.70
2022-08-30T11:40:54.386Z,31.60
2022-08-30T11:43:34.043Z,31.65
2022-08-30T11:46:14.767Z,31.58
2022-08-30T11:48:54.243Z,32.09
2022-08-30T11:51:35.487Z,32.20
2022-08-30T11:54:06.850Z,32.73
2022-08-30T11:56:46.916Z,32.83
2022-08-30T11:59:30.191Z,32.47
2022-08-30T12:02:00.181Z,33.21
2022-08-30T12:04:30.170Z,33.17
2022-08-30T12:07:04.286Z,32.87
2022-08-30T12:09:35.390Z,32.28
2022-08-30T12:12:02.859Z,33.26
2022-08-30T12:14:34.990Z,33.27
2022-08-30T12:17:22.426Z,33.82
2022-08-30T12:19:53.521Z,34.30
2022-08-30T12:22:22.067Z,33.42
2022-08-30T12:24:50.483Z,33.42
2022-08-30T12:27:25.115Z,33.42
2022-08-30T12:29:54.282Z,33.16
2022-08-30T12:32:24.778Z,33.64
2022-08-30T12:35:00.592Z,33.53
2022-08-30T12:37:27.851Z,33.93
2022-08-30T12:40:02.087Z,33.66
2022-08-30T12:42:30.981Z,33.26
2022-08-30T12:44:59.636Z,33.46
2022-08-30T12:47:32.325Z,33.90
2022-08-30T12:50:00.190Z,34.00
2022-08-30T12:52:29.514Z,33.48
2022-08-30T12:55:05.810Z,33.83
2022-08-30T12:58:00.715Z,33.67
2022-08-30T13:00:35.861Z,33.05
2022-08-30T13:03:24.188Z,32.85
2022-08-30T13:05:53.172Z,33.15
2022-08-30T13:08:27.638Z,32.54
2022-08-30T13:10:59.657Z,32.88
2022-08-30T13:13:27.436Z,32.71
2022-08-30T13:15:55.184Z,32.69
2022-08-30T13:18:35.505Z,32.45
2022-08-30T13:21:22.592Z,32.43
2022-08-30T13:23:50.780Z,33.18
2022-08-30T13:26:23.153Z,33.22
2022-08-30T13:28:51.938Z,33.45
2022-08-30T13:31:20.002Z,33.20
2022-08-30T13:33:47.430Z,33.70
2022-08-30T13:36:15.274Z,33.42
2022-08-30T13:38:43.374Z,33.67
2022-08-30T13:41:11.105Z,33.69
2022-08-30T13:46:27.236Z,33.62
2022-08-30T13:48:56.630Z,33.45
2022-08-30T13:51:24.402Z,33.66
2022-08-30T13:53:53.513Z,33.44
2022-08-30T13:56:21.439Z,33.41
2022-08-30T13:58:48.739Z,34.05
2022-08-30T14:01:16.451Z,33.97
2022-08-30T14:06:33.997Z,33.26
2022-08-30T14:09:04.496Z,33.33
2022-08-30T14:11:32.422Z,33.49
2022-08-30T14:14:20.861Z,33.17
2022-08-30T14:16:48.512Z,32.90
2022-08-30T14:19:17.040Z,32.65
2022-08-30T14:21:49.019Z,32.69
2022-08-30T14:24:19.898Z,32.87
2022-08-30T14:26:48.612Z,32.46
2022-08-30T14:29:16.929Z,32.35
2022-08-30T14:31:45.078Z,32.65
2022-08-30T14:34:14.492Z,32.41
2022-08-30T14:36:42.337Z,32.73
2022-08-30T14:39:11.861Z,32.81
2022-08-30T14:41:44.050Z,32.96
2022-08-30T14:44:12.897Z,32.63
2022-08-30T14:46:40.506Z,32.50
2022-08-30T14:49:10.189Z,32.97
2022-08-30T14:51:39.226Z,32.85
2022-08-30T14:54:06.522Z,32.72
2022-08-30T14:56:33.832Z,32.57
2022-08-30T14:59:03.271Z,32.23
2022-08-30T15:01:31.348Z,32.39
2022-08-30T15:03:58.890Z,32.70
2022-08-30T15:06:26.616Z,32.28
2022-08-30T15:08:54.837Z,32.24
2022-08-30T15:11:23.550Z,32.12
2022-08-30T15:13:52.960Z,31.90
2022-08-30T15:16:25.286Z,31.99
2022-08-30T15:18:52.902Z,32.04
2022-08-30T15:21:28.352Z,31.97
2022-08-30T15:23:56.432Z,31.99
2022-08-30T15:26:23.914Z,31.76
2022-08-30T15:28:51.545Z,31.77
2022-08-30T15:31:19.887Z,31.56
2022-08-30T15:33:47.650Z,31.61
2022-08-30T15:36:17.115Z,31.62
2022-08-30T15:38:45.717Z,31.36
2022-08-30T15:41:13.142Z,31.27
2022-08-30T15:43:43.327Z,31.32
2022-08-30T15:46:22.687Z,31.43
2022-08-30T15:48:51.922Z,31.57
2022-08-30T15:51:19.707Z,31.44
2022-08-30T15:53:47.037Z,31.51
2022-08-30T15:56:15.745Z,31.32
2022-08-30T15:58:43.593Z,31.46
2022-08-30T16:01:11.310Z,31.49
2022-08-30T16:03:41.674Z,31.48
2022-08-30T16:06:13.292Z,31.25
2022-08-30T16:08:41.092Z,31.32
2022-08-30T16:11:09.038Z,31.26
2022-08-30T16:13:36.298Z,31.42
2022-08-30T16:16:04.542Z,30.90
2022-08-30T16:18:31.881Z,30.88
2022-08-30T16:24:46.678Z,31.09
2022-08-30T16:27:14.430Z,30.74
2022-08-30T16:29:41.677Z,30.99
2022-08-30T16:32:08.922Z,30.90
2022-08-30T16:34:37.277Z,31.07
2022-08-30T16:37:05.441Z,30.51
2022-08-30T16:39:32.678Z,30.47
2022-08-30T16:42:03.075Z,30.53
2022-08-30T16:44:30.522Z,30.39
2022-08-30T16:46:57.842Z,30.37
2022-08-30T16:49:25.784Z,30.34
2022-08-30T16:51:53.083Z,30.42
2022-08-30T16:54:20.494Z,30.51
2022-08-30T16:56:48.078Z,30.57
2022-08-30T16:59:16.816Z,30.41
2022-08-30T17:01:44.781Z,30.46
2022-08-30T17:04:13.810Z,30.44
2022-08-30T17:06:46.146Z,30.26
2022-08-30T17:09:15.087Z,29.99
2022-08-30T17:11:42.627Z,29.95
2022-08-30T17:14:10.089Z,29.97
2022-08-30T17:16:37.706Z,29.88
2022-08-30T17:19:28.934Z,29.79
2022-08-30T17:21:58.032Z,29.64
2022-08-30T17:24:25.749Z,29.58
2022-08-30T17:26:54.498Z,29.40
2022-08-30T17:29:22.154Z,29.54
2022-08-30T17:31:50.878Z,29.45
2022-08-30T17:34:21.893Z,29.45
2022-08-30T17:36:50.338Z,29.25
2022-08-30T17:39:17.636Z,28.99
2022-08-30T17:41:48.301Z,28.99
2022-08-30T17:44:19.230Z,28.82
2022-08-30T17:46:46.729Z,28.62
2022-08-30T17:49:14.180Z,28.54
2022-08-30T17:51:44.379Z,28.61
2022-08-30T17:54:13.024Z,28.62
2022-08-30T17:56:40.814Z,28.38
2022-08-30T17:59:10.097Z,28.08
2022-08-30T18:01:37.646Z,28.15
2022-08-30T18:04:06.071Z,28.31
2022-08-30T18:06:34.438Z,28.19
2022-08-30T18:09:02.382Z,28.11
2022-08-30T18:11:31.301Z,28.07
2022-08-30T18:13:58.813Z,27.87
2022-08-30T18:16:26.708Z,27.86
2022-08-30T18:18:57.274Z,27.58
2022-08-30T18:21:25.305Z,27.69
2022-08-30T18:23:52.880Z,27.58
2022-08-30T18:26:24.081Z,27.63
2022-08-30T18:28:51.798Z,27.56
2022-08-30T18:31:20.607Z,27.46
2022-08-30T18:33:50.047Z,27.29
2022-08-30T18:36:18.678Z,27.32
2022-08-30T18:38:45.908Z,27.17
2022-08-30T18:41:16.079Z,27.10
2022-08-30T18:43:43.562Z,26.99
2022-08-30T18:46:15.186Z,27.07
2022-08-30T18:48:46.431Z,26.90
2022-08-30T18:51:14.804Z,26.72
2022-08-30T18:53:42.898Z,26.57
2022-08-30T18:56:14.683Z,26.69
2022-08-30T18:58:44.618Z,26.66
2022-08-30T19:01:13.034Z,26.56
2022-08-30T19:03:40.761Z,26.51
2022-08-30T19:06:11.381Z,26.49
2022-08-30T19:08:40.396Z,26.29
2022-08-30T19:11:08.813Z,26.24
2022-08-30T19:13:36.749Z,26.32
2022-08-30T19:16:05.465Z,26.07
2022-08-30T19:18:34.315Z,26.05
2022-08-30T19:21:06.146Z,25.81
2022-08-30T19:23:41.048Z,25.66
2022-08-30T19:26:10.833Z,25.60
2022-08-30T19:28:38.721Z,25.52
2022-08-30T19:31:06.637Z,25.52
2022-08-30T19:33:34.831Z,25.76
2022-08-30T19:36:03.582Z,25.73
2022-08-30T19:38:34.133Z,25.67
2022-08-30T19:41:02.826Z,25.28
2022-08-30T19:43:31.730Z,25.41
2022-08-30T19:45:59.791Z,25.44
2022-08-30T19:48:32.607Z,25.32
2022-08-30T19:51:08.014Z,25.19
2022-08-30T19:53:39.031Z,25.39
2022-08-30T19:56:06.325Z,25.28
2022-08-30T19:58:34.490Z,25.24
2022-08-30T20:01:11.659Z,25.32
2022-08-30T20:03:53.684Z,25.28
2022-08-30T20:06:24.039Z,25.37
2022-08-30T20:08:52.076Z,25.36
2022-08-30T20:11:24.146Z,25.29
2022-08-30T20:13:51.788Z,25.02
2022-08-30T20:16:19.138Z,24.78
2022-08-30T20:18:48.995Z,24.86
2022-08-30T20:21:16.824Z,24.75
2022-08-30T20:23:44.151Z,24.74
2022-08-30T20:26:12.339Z,24.69
2022-08-30T20:28:42.507Z,24.66
2022-08-30T20:31:11.269Z,24.53
2022-08-30T20:33:39.025Z,24.75
2022-08-30T20:36:07.772Z,24.71
2022-08-30T20:38:35.154Z,24.58
2022-08-30T20:41:03.558Z,24.62
2022-08-30T20:43:31.684Z,24.67
2022-08-30T20:45:59.057Z,24.76
2022-08-30T20:48:28.802Z,24.72
2022-08-30T20:50:56.558Z,24.58
2022-08-30T20:53:23.970Z,24.62
2022-08-30T20:55:51.309Z,24.42
2022-08-30T20:58:19.039Z,24.24
2022-08-30T21:00:50.352Z,24.44
2022-08-30T21:03:27.620Z,24.44
2022-08-30T21:05:56.087Z,24.32
2022-08-30T21:08:26.632Z,24.24
2022-08-30T21:10:55.079Z,24.22
2022-08-30T21:13:22.519Z,24.36
2022-08-30T21:15:54.566Z,24.27
2022-08-30T21:18:22.420Z,24.09
2022-08-30T21:20:50.063Z,24.05
2022-08-30T21:23:17.306Z,24.12
2022-08-30T21:25:44.687Z,24.18
2022-08-30T21:28:12.292Z,24.09
2022-08-30T21:30:39.823Z,24.13
2022-08-30T21:33:07.833Z,24.13
2022-08-30T21:35:55.425Z,24.02
2022-08-30T21:38:23.251Z,24.04
2022-08-30T21:40:51.071Z,23.91
2022-08-30T21:43:18.380Z,23.92
2022-08-30T21:45:45.984Z,23.92
2022-08-30T21:48:13.774Z,23.93
2022-08-30T21:50:41.838Z,23.85
2022-08-30T21:53:09.300Z,23.76
2022-08-30T21:55:37.074Z,23.71
2022-08-30T21:58:04.574Z,23.63
2022-08-30T22:00:33.701Z,23.72
2022-08-30T22:03:01.696Z,23.56
2022-08-30T22:05:29.034Z,23.61
2022-08-30T22:07:56.707Z,23.63
2022-08-30T22:10:24.329Z,23.67
2022-08-30T22:12:52.018Z,23.49
2022-08-30T22:15:19.529Z,23.56
2022-08-30T22:17:47.176Z,23.55
2022-08-30T22:20:18.517Z,23.59
2022-08-30T22:22:45.988Z,23.49
2022-08-30T22:25:13.793Z,23.44
2022-08-30T22:27:41.029Z,23.43
2022-08-30T22:30:08.553Z,23.49
2022-08-30T22:32:38.254Z,23.21
2022-08-30T22:35:05.941Z,23.25
2022-08-30T22:37:34.590Z,23.00
2022-08-30T22:40:02.459Z,22.93
2022-08-30T22:42:29.714Z,22.92
2022-08-30T22:44:56.989Z,22.99
2022-08-30T22:47:24.668Z,23.12
2022-08-30T22:49:52.316Z,23.11
2022-08-30T22:52:24.132Z,23.02
2022-08-30T22:54:53.240Z,22.69
2022-08-30T22:57:20.664Z,22.73
2022-08-30T22:59:48.758Z,22.71
2022-08-30T23:02:16.468Z,22.90
2022-08-30T23:04:43.756Z,23.02
2022-08-30T23:07:11.165Z,22.90
2022-08-30T23:09:38.902Z,22.87
2022-08-30T23:12:06.566Z,22.87
2022-08-30T23:14:34.225Z,22.93
2022-08-30T23:17:01.890Z,22.75
2022-08-30T23:19:29.638Z,22.83
2022-08-30T23:21:57.446Z,22.76
2022-08-30T23:24:46.211Z,22.66
2022-08-30T23:27:35.151Z,22.74
2022-08-30T23:30:22.490Z,22.50
2022-08-30T23:33:08.873Z,22.32
2022-08-30T23:35:55.410Z,22.22
2022-08-30T23:38:41.439Z,22.24
2022-08-30T23:41:30.264Z,22.03
2022-08-30T23:44:20.322Z,22.05
2022-08-30T23:47:06.690Z,22.28
2022-08-30T23:49:52.733Z,22.33
2022-08-30T23:52:39.359Z,22.46
2022-08-30T23:55:25.568Z,22.43
2022-08-30T23:58:12.082Z,22.38
